Peebles, United Kingdom

1:36 PM GMT on February 13, 2016 (GMT +0000)
Kittlegairy, Peebles | | Change Station
CLOSE
Current Station
Personal Weather Station
Location: Peebles, THE SCOTTISH BORDERS
Elevation: 526 ft
Nearby Weather Stations

Elev 526 ft 55.64 °N, 3.17 °W | Updated 11 seconds ago

Light Rain
Light Rain Snow
35.2 °F
Feels Like 35 °F
N
1.6
Wind Variable Wind from SE
Gusts 3.8 mph

Today
High -- | Low -- °F
--% Chance of Precip.
Yesterday
High -- | Low -- °F
Precip. -- in
Pressure 29.36 in
Visibility 5.0 miles
Clouds Mostly Cloudy 500 ft
Windchill 35 °F
Dew Point 8 °F
Humidity 32%
Rainfall 0.33 in
Snow Depth Not available.
7:42 AM 5:11 PM
Waxing Crescent, 30% visible
METAR EGPH 131320Z AUTO 07009KT 8000 -RASN BKN005/// //////TCU 01/01 Q0994
Pressure 29.36 in
Visibility 5.0 miles
Clouds Mostly Cloudy 500 ft
Windchill 35 °F
Dew Point 8 °F
Humidity 32%
Rainfall 0.33 in
Snow Depth Not available.
7:42 AM 5:11 PM
Waxing Crescent, 30% visible
METAR EGPH 131320Z AUTO 07009KT 8000 -RASN BKN005/// //////TCU 01/01 Q0994

10-Day Weather Forecast

Almanac

Astronomy

Feb. 13, 2016 Rise Set
Actual Time
Civil Twilight
Nautical Twilight
Astronomical Twilight
Moon
Length of Visible Light
Length of Day
Tomorrow will be .
, % of the Moon is Illuminated

Today's Extremes

Country Highs Country Lows

Community

WunderPhotos

Upload Photos

1,892,547 photos uploaded!

WunderBlog® & News

Nearby

Air Quality

  Air Quality AQ Index Pollutant
Not available.

Snow Depth

Station Depth Elevation

Earthquake Activity

City Distance Mag. Time & Date
Minimum magnitude displayed is 2.5.

Coastal Water Temperatures

Place Temperature

Stations

Nearby Weather Stations

Station Location Temp. Windchill Dew Point Humidity Wind Precip. Elev Updated Type